createdAt,value
2022-10-22T00:04:35.450Z,90.10
2022-10-22T00:09:38.422Z,90.20
2022-10-22T00:14:40.838Z,90.20
2022-10-22T00:19:44.745Z,90.20
2022-10-22T00:24:47.097Z,90.10
2022-10-22T00:29:49.344Z,90.10
2022-10-22T00:34:53.273Z,90.10
2022-10-22T00:39:55.734Z,90.10
2022-10-22T00:45:06.708Z,90.20
2022-10-22T00:50:14.308Z,90.30
2022-10-22T00:55:17.595Z,90.10
2022-10-22T01:00:20.135Z,90.10
2022-10-22T01:05:27.505Z,90.20
2022-10-22T01:10:47.438Z,90.20
2022-10-22T01:15:59.299Z,90.50
2022-10-22T01:21:12.814Z,90.50
2022-10-22T01:26:25.940Z,90.30
2022-10-22T01:31:33.863Z,90.30
2022-10-22T01:36:37.857Z,90.40
2022-10-22T01:41:43.255Z,90.40
2022-10-22T01:46:51.106Z,90.40
2022-10-22T01:52:03.133Z,90.50
2022-10-22T01:57:13.781Z,90.50
2022-10-22T02:02:29.507Z,90.50
2022-10-22T02:07:36.236Z,90.60
2022-10-22T02:12:41.763Z,90.40
2022-10-22T02:17:47.430Z,90.40
2022-10-22T02:22:50.713Z,90.40
2022-10-22T02:28:02.413Z,90.40
2022-10-22T02:33:11.784Z,90.50
2022-10-22T02:38:15.293Z,90.60
2022-10-22T02:43:19.215Z,90.40
2022-10-22T02:48:22.934Z,90.50
2022-10-22T02:53:25.340Z,90.50
2022-10-22T02:58:27.673Z,90.50
2022-10-22T03:03:31.448Z,90.50
2022-10-22T03:08:33.709Z,90.50
2022-10-22T03:13:36.501Z,90.50
2022-10-22T03:18:40.135Z,90.60
2022-10-22T03:23:43.647Z,90.60
2022-10-22T03:28:46.127Z,90.60
2022-10-22T03:33:50.419Z,90.60
2022-10-22T03:38:52.836Z,90.70
2022-10-22T03:43:56.070Z,90.70
2022-10-22T03:48:59.776Z,90.70
2022-10-22T03:54:02.243Z,90.70
2022-10-22T03:59:04.724Z,90.70
2022-10-22T04:04:08.740Z,90.60
2022-10-22T04:09:11.034Z,90.70
2022-10-22T04:14:13.502Z,90.60
2022-10-22T04:19:17.523Z,90.60
2022-10-22T04:24:20.037Z,90.60
2022-10-22T04:29:22.248Z,90.60
2022-10-22T04:34:28.062Z,90.60
2022-10-22T04:39:30.529Z,90.70
2022-10-22T04:44:33.063Z,90.70
2022-10-22T04:49:36.719Z,90.60
2022-10-22T04:54:38.893Z,90.70
2022-10-22T04:59:41.203Z,90.60
2022-10-22T05:04:45.930Z,90.60
2022-10-22T05:09:48.155Z,90.60
2022-10-22T05:14:50.379Z,90.50
2022-10-22T05:19:54.192Z,90.60
2022-10-22T05:24:56.469Z,90.50
2022-10-22T05:29:58.667Z,90.60
2022-10-22T05:35:02.256Z,91.10
2022-10-22T05:40:19.259Z,90.80
2022-10-22T05:45:28.331Z,90.90
2022-10-22T05:50:32.115Z,90.90
2022-10-22T05:55:36.874Z,90.90
2022-10-22T06:00:39.168Z,90.90
2022-10-22T06:05:43.204Z,91.10
2022-10-22T06:10:45.682Z,90.90
2022-10-22T06:15:47.947Z,91.00
2022-10-22T06:20:51.828Z,91.00
2022-10-22T06:25:57.885Z,91.00
2022-10-22T06:31:01.333Z,91.10
2022-10-22T06:36:10.453Z,91.20
2022-10-22T06:41:14.895Z,91.40
2022-10-22T06:46:20.292Z,91.70
2022-10-22T06:51:24.715Z,91.80
2022-10-22T06:56:28.953Z,91.70
2022-10-22T07:01:33.330Z,91.30
2022-10-22T07:06:38.066Z,90.70
2022-10-22T07:11:42.354Z,90.00
2022-10-22T07:16:44.833Z,88.70
2022-10-22T07:21:48.693Z,88.30
2022-10-22T07:26:51.151Z,88.40
2022-10-22T07:31:53.520Z,88.60
2022-10-22T07:36:57.264Z,89.00
2022-10-22T07:41:59.479Z,89.30
2022-10-22T07:47:01.982Z,89.90
2022-10-22T07:52:07.654Z,90.40
2022-10-22T07:57:09.907Z,91.00
2022-10-22T08:02:12.548Z,91.30
2022-10-22T08:07:16.376Z,90.50
2022-10-22T08:12:19.230Z,89.10
2022-10-22T08:17:21.622Z,89.60
2022-10-22T08:22:25.528Z,90.10
2022-10-22T08:27:28.047Z,89.30
2022-10-22T08:32:30.271Z,88.10
2022-10-22T08:37:33.970Z,85.80
2022-10-22T08:43:06.158Z,82.80
2022-10-22T08:48:18.427Z,80.00
2022-10-22T08:53:29.554Z,80.60
2022-10-22T08:58:40.314Z,80.80
2022-10-22T09:03:51.038Z,80.60
2022-10-22T09:08:57.276Z,80.60
2022-10-22T09:14:01.460Z,81.10
2022-10-22T09:19:18.333Z,79.60
2022-10-22T09:24:29.583Z,76.00
2022-10-22T09:29:36.218Z,78.30
2022-10-22T09:34:39.130Z,75.80
2022-10-22T09:39:46.555Z,76.10
2022-10-22T09:44:54.051Z,76.60
2022-10-22T09:50:12.353Z,77.00
2022-10-22T09:55:19.056Z,77.90
2022-10-22T10:00:21.926Z,77.70
2022-10-22T10:05:30.159Z,78.30
2022-10-22T10:10:41.945Z,78.50
2022-10-22T10:15:51.035Z,78.20
2022-10-22T10:21:04.739Z,79.00
2022-10-22T10:26:15.343Z,80.40
2022-10-22T10:31:28.039Z,80.20
2022-10-22T10:36:40.035Z,77.50
2022-10-22T10:41:53.096Z,76.80
2022-10-22T10:47:02.863Z,76.10
2022-10-22T10:52:17.503Z,75.20
2022-10-22T10:57:36.295Z,75.50
2022-10-22T11:03:32.488Z,76.70
2022-10-22T11:08:39.050Z,77.30
2022-10-22T11:13:47.790Z,77.70
2022-10-22T11:18:56.892Z,77.00
2022-10-22T11:24:10.465Z,76.10
2022-10-22T11:29:19.690Z,75.70
2022-10-22T11:34:34.793Z,74.90
2022-10-22T11:39:43.418Z,75.00
2022-10-22T11:45:00.878Z,74.30
2022-10-22T11:50:19.762Z,74.50
2022-10-22T11:55:42.576Z,75.80
2022-10-22T12:00:50.208Z,75.80
2022-10-22T12:06:16.655Z,76.20
2022-10-22T12:11:23.902Z,76.50
2022-10-22T12:16:54.603Z,76.90
2022-10-22T12:22:00.881Z,77.20
2022-10-22T12:27:03.465Z,77.70
2022-10-22T12:32:07.391Z,78.20
2022-10-22T12:37:13.013Z,78.50
2022-10-22T12:42:18.064Z,78.90
2022-10-22T12:47:22.182Z,79.40
2022-10-22T12:52:24.552Z,79.70
2022-10-22T12:57:26.986Z,79.80
2022-10-22T13:02:30.905Z,80.10
2022-10-22T13:07:41.718Z,80.30
2022-10-22T13:12:48.935Z,80.20
2022-10-22T13:18:01.887Z,80.30
2022-10-22T13:23:05.793Z,80.40
2022-10-22T13:28:19.832Z,80.70
2022-10-22T13:33:27.621Z,81.00
2022-10-22T13:38:30.931Z,81.10
2022-10-22T13:43:33.257Z,81.20
2022-10-22T13:48:37.254Z,81.60
2022-10-22T13:53:39.656Z,82.20
2022-10-22T13:58:43.330Z,82.20
2022-10-22T14:03:48.135Z,82.60
2022-10-22T14:08:54.527Z,83.40
2022-10-22T14:13:56.856Z,83.70
2022-10-22T14:19:02.340Z,83.50
2022-10-22T14:24:07.203Z,83.50
2022-10-22T14:29:12.064Z,83.30
2022-10-22T14:34:17.141Z,83.10
2022-10-22T14:39:19.647Z,83.10
2022-10-22T14:44:22.176Z,83.50
2022-10-22T14:49:26.062Z,83.80
2022-10-22T14:54:28.593Z,83.60
2022-10-22T14:59:31.458Z,83.60
2022-10-22T15:04:35.472Z,83.70
2022-10-22T15:09:37.717Z,83.70
2022-10-22T15:14:39.926Z,83.50
2022-10-22T15:19:44.557Z,83.30
2022-10-22T15:24:46.975Z,83.40
2022-10-22T15:29:49.352Z,83.30
2022-10-22T15:34:54.382Z,83.10
2022-10-22T15:39:57.204Z,83.20
2022-10-22T15:44:59.667Z,83.40
2022-10-22T15:50:03.740Z,83.50
2022-10-22T15:55:07.213Z,83.80
2022-10-22T16:00:11.222Z,83.80
2022-10-22T16:05:15.354Z,83.80
2022-10-22T16:10:17.845Z,84.00
2022-10-22T16:15:20.235Z,83.80
2022-10-22T16:20:24.060Z,83.80
2022-10-22T16:25:26.370Z,83.70
2022-10-22T16:30:28.730Z,84.50
2022-10-22T16:35:32.745Z,83.70
2022-10-22T16:40:35.098Z,83.80
2022-10-22T16:45:37.433Z,83.90
2022-10-22T16:50:41.218Z,84.00
2022-10-22T16:55:43.774Z,84.10
2022-10-22T17:00:46.598Z,84.10
2022-10-22T17:05:50.359Z,84.20
2022-10-22T17:10:52.987Z,84.30
2022-10-22T17:16:02.125Z,84.30
2022-10-22T17:21:06.959Z,84.60
2022-10-22T17:26:13.849Z,84.50
2022-10-22T17:31:19.333Z,84.70
2022-10-22T17:36:24.411Z,84.80
2022-10-22T17:41:28.942Z,84.80
2022-10-22T17:46:32.095Z,84.70
2022-10-22T17:51:35.802Z,84.80
2022-10-22T17:56:38.778Z,84.80
2022-10-22T18:01:41.401Z,84.80
2022-10-22T18:06:46.267Z,84.70
2022-10-22T18:11:50.399Z,84.70
2022-10-22T18:16:53.187Z,84.60
2022-10-22T18:21:57.004Z,84.70
2022-10-22T18:26:59.352Z,84.80
2022-10-22T18:32:01.969Z,84.90
2022-10-22T18:37:06.115Z,85.00
2022-10-22T18:42:08.486Z,85.10
2022-10-22T18:47:10.872Z,85.10
2022-10-22T18:52:15.178Z,85.20
2022-10-22T18:57:17.797Z,85.30
2022-10-22T19:02:20.700Z,85.30
2022-10-22T19:07:24.504Z,85.30
2022-10-22T19:12:26.989Z,85.30
2022-10-22T19:17:30.604Z,85.20
2022-10-22T19:22:34.378Z,85.40
2022-10-22T19:27:38.017Z,85.50
2022-10-22T19:32:42.499Z,85.70
2022-10-22T19:37:48.426Z,85.90
2022-10-22T19:43:07.201Z,86.10
2022-10-22T19:48:12.848Z,86.40
2022-10-22T19:53:16.822Z,86.20
2022-10-22T19:58:19.384Z,86.40
2022-10-22T20:03:21.971Z,86.30
2022-10-22T20:08:25.790Z,86.30
2022-10-22T20:13:28.181Z,86.60
2022-10-22T20:18:30.558Z,86.80
2022-10-22T20:23:34.823Z,86.80
2022-10-22T20:28:38.806Z,86.80
2022-10-22T20:33:41.187Z,87.00
2022-10-22T20:38:45.154Z,87.20
2022-10-22T20:43:48.813Z,87.50
2022-10-22T20:48:52.737Z,87.50
2022-10-22T20:53:57.134Z,87.70
2022-10-22T20:59:00.368Z,87.90
2022-10-22T21:04:02.747Z,87.90
2022-10-22T21:09:08.575Z,87.90
2022-10-22T21:14:13.432Z,88.20
2022-10-22T21:19:16.405Z,88.30
2022-10-22T21:24:21.015Z,88.40
2022-10-22T21:29:23.358Z,88.70
2022-10-22T21:34:25.869Z,88.90
2022-10-22T21:39:30.512Z,88.80
2022-10-22T21:44:33.425Z,88.90
2022-10-22T21:49:35.695Z,88.80
2022-10-22T21:54:39.481Z,88.80
2022-10-22T21:59:41.793Z,88.90
2022-10-22T22:04:44.312Z,89.00
2022-10-22T22:09:49.319Z,89.00
2022-10-22T22:14:51.789Z,89.10
2022-10-22T22:19:54.292Z,89.00
2022-10-22T22:24:57.960Z,89.10
2022-10-22T22:30:00.170Z,89.10
2022-10-22T22:35:02.449Z,89.20
2022-10-22T22:40:07.248Z,89.30
2022-10-22T22:45:09.975Z,89.50
2022-10-22T22:50:12.405Z,89.30
2022-10-22T22:55:16.534Z,89.30
2022-10-22T23:00:19.150Z,89.50
2022-10-22T23:05:21.529Z,89.30
2022-10-22T23:10:25.194Z,89.40
2022-10-22T23:15:27.845Z,89.40
2022-10-22T23:20:30.411Z,89.40
2022-10-22T23:25:34.220Z,89.50
2022-10-22T23:30:42.781Z,89.70
2022-10-22T23:35:45.169Z,90.00
2022-10-22T23:40:54.910Z,89.80
2022-10-22T23:45:57.830Z,90.10
2022-10-22T23:51:05.236Z,90.00
2022-10-22T23:56:10.026Z,90.10
